Time;durP1;ratioP1;P1;durP2;ratioP2;P2;SDS_P1;SDS_P2;PMS_P1;PMS_P2;Temp;Humidity;BMP_temperature;BMP_pressure;BME280_temperature;BME280_humidity;BME280_pressure;Samples;Min_cycle;Max_cycle;Signal;HPM_P1;HPM_P2
2021/12/25 00:04:24;;;;;;;23.03;10.50;;;5.20;99.90;;;2.90;97.87;98940.09;10377342;28;96753;-80
2021/12/25 00:09:27;;;;;;;30.80;16.23;;;5.00;99.90;;;2.94;98.45;98941.44;10392996;28;96801;-80
2021/12/25 00:14:30;;;;;;;40.73;21.03;;;5.00;99.90;;;2.95;98.63;98945.72;10378033;28;97388;-79
2021/12/25 00:19:33;;;;;;;35.90;18.40;;;5.00;99.90;;;2.93;98.49;98936.34;10399341;28;96742;-79
2021/12/25 00:24:42;;;;;;;35.30;15.47;;;5.00;99.90;;;2.92;98.54;98945.19;10404298;28;97275;-79
2021/12/25 00:34:49;;;;;;;22.83;12.00;;;4.90;99.90;;;3.06;98.91;98939.44;10377820;28;96950;-79
2021/12/25 00:39:55;;;;;;;17.53;9.93;;;5.00;99.90;;;3.06;99.06;98938.56;10391037;28;98451;-79
2021/12/25 00:44:58;;;;;;;22.57;11.07;;;5.10;99.90;;;3.10;98.95;98926.81;10388682;28;96644;-79
2021/12/25 00:50:02;;;;;;;20.50;11.07;;;5.10;99.90;;;3.11;99.08;98934.53;10387850;28;96923;-79
2021/12/25 00:55:07;;;;;;;14.43;7.83;;;5.10;99.90;;;3.15;98.81;98935.88;10384686;28;97166;-79
2021/12/25 01:00:15;;;;;;;11.30;6.07;;;5.10;99.90;;;3.30;99.39;98935.34;10397281;28;96526;-80
2021/12/25 01:05:18;;;;;;;10.87;5.77;;;5.20;99.90;;;3.42;99.47;98948.09;10383850;28;96963;-79
2021/12/25 01:10:22;;;;;;;12.20;7.27;;;5.40;99.90;;;3.47;99.03;98964.19;10394836;28;98149;-79
2021/12/25 01:15:36;;;;;;;16.40;8.10;;;5.40;99.90;;;3.50;98.83;98984.09;10381705;28;99572;-79
2021/12/25 01:21:14;;;;;;;14.20;7.47;;;5.50;99.90;;;3.58;98.82;98999.91;10387353;28;97030;-79
2021/12/25 01:26:42;;;;;;;9.07;5.40;;;5.50;99.90;;;3.91;99.28;99000.97;10390244;28;97655;-79
2021/12/25 01:52:41;;;;;;;9.45;5.03;;;6.80;99.90;;;5.18;94.73;98997.53;10382085;28;97744;-79
2021/12/25 01:57:44;;;;;;;7.73;4.33;;;7.00;99.90;;;5.15;93.69;99000.47;10405472;27;96696;-79
2021/12/25 02:02:49;;;;;;;7.43;4.23;;;7.00;99.90;;;5.04;93.12;98994.53;10382505;28;98056;-79
2021/12/25 02:07:52;;;;;;;7.93;4.67;;;7.00;99.90;;;4.98;92.72;98997.81;10383119;28;96999;-79
2021/12/25 02:12:55;;;;;;;9.37;5.33;;;6.90;99.90;;;4.90;92.42;98997.78;10372781;28;98517;-79
2021/12/25 02:18:23;;;;;;;9.50;5.63;;;6.90;99.90;;;4.78;92.24;99006.97;10377462;28;98267;-78
2021/12/25 02:23:25;;;;;;;;;;;6.80;99.90;;;4.68;92.25;99004.47;10381090;28;97986;-78
2021/12/25 02:28:28;;;;;;;9.63;5.30;;;6.70;99.90;;;4.75;92.61;99005.50;10387284;28;98385;-80
2021/12/25 02:33:32;;;;;;;8.93;4.90;;;6.70;99.90;;;4.80;92.61;98990.03;10386798;28;97874;-80
2021/12/25 02:38:36;;;;;;;11.80;5.07;;;6.70;99.90;;;4.77;92.25;98990.34;10389062;28;98554;-78
2021/12/25 02:43:39;;;;;;;9.00;4.33;;;6.70;99.90;;;4.65;91.97;98989.00;10388942;28;97031;-78
2021/12/25 02:48:43;;;;;;;9.97;4.20;;;6.60;99.90;;;4.63;92.29;99004.13;10380291;28;97113;-78
2021/12/25 02:53:45;;;;;;;8.67;4.37;;;6.60;99.90;;;4.79;92.51;99000.72;10382579;28;96892;-78
2021/12/25 02:58:48;;;;;;;7.20;4.53;;;6.70;99.90;;;4.88;92.17;98989.25;10388670;28;96606;-77
2021/12/25 03:03:51;;;;;;;5.80;3.50;;;6.80;99.90;;;4.88;91.54;98997.13;10365112;28;96914;-78
2021/12/25 03:08:54;;;;;;;5.77;3.70;;;6.80;99.90;;;4.80;91.31;98994.50;10386357;28;96949;-78
2021/12/25 03:14:10;;;;;;;7.13;3.70;;;6.80;99.90;;;4.72;91.28;98997.06;10394955;27;97110;-78
2021/12/25 03:19:16;;;;;;;6.90;3.30;;;6.70;99.90;;;4.74;91.65;98982.78;10367632;28;97316;-79
2021/12/25 03:24:19;;;;;;;8.50;3.97;;;6.70;99.90;;;4.72;91.42;98981.28;10387432;28;96714;-79
2021/12/25 03:29:26;;;;;;;6.87;4.10;;;6.70;99.90;;;4.84;91.48;98977.38;10382697;28;98331;-80
2021/12/25 03:34:29;;;;;;;7.70;4.00;;;6.80;99.90;;;4.93;91.06;98986.13;10369862;28;97075;-80
2021/12/25 03:39:32;;;;;;;8.10;3.60;;;6.80;99.90;;;5.03;90.75;98987.59;10384270;28;96545;-80
2021/12/25 03:44:35;;;;;;;5.80;3.60;;;6.90;99.90;;;5.12;90.31;98995.53;10375944;28;97223;-79
2021/12/25 03:53:09;;;;;;;5.33;3.00;;;7.00;99.90;;;5.21;90.06;98991.91;10393137;28;96823;-79
2021/12/25 04:00:31;;;;;;;5.90;3.10;;;7.10;99.90;;;5.45;89.44;99007.75;10394048;28;96717;-78
2021/12/25 04:05:37;;;;;;;4.83;2.97;;;7.20;99.90;;;5.53;89.21;99018.31;10373786;28;96669;-79
2021/12/25 04:10:45;;;;;;;5.20;2.93;;;7.30;99.90;;;5.71;88.75;99010.22;10400209;27;97626;-78
2021/12/25 04:15:48;;;;;;;4.67;2.53;;;7.50;99.90;;;5.78;88.56;99002.47;10387956;28;96944;-79
2021/12/25 04:20:51;;;;;;;3.77;2.50;;;7.60;99.90;;;5.81;88.22;99012.66;10397579;28;96516;-79
2021/12/25 04:25:56;;;;;;;5.90;3.10;;;7.60;99.90;;;5.71;88.28;99015.50;10390043;28;98371;-79
2021/12/25 05:03:04;;;;;;;8.57;5.20;;;7.30;99.90;;;5.32;88.13;99025.84;10379819;28;96877;-81
2021/12/25 05:08:07;;;;;;;5.33;2.70;;;7.20;99.90;;;5.35;87.79;99026.34;10384091;28;97880;-80
2021/12/25 05:13:10;;;;;;;5.83;3.20;;;7.20;99.90;;;5.43;87.90;99025.53;10388066;28;98515;-79
2021/12/25 05:18:13;;;;;;;4.83;2.97;;;7.30;99.90;;;5.47;87.52;99024.22;10383366;28;97092;-80
2021/12/25 05:23:16;;;;;;;4.80;2.90;;;7.30;99.90;;;5.50;86.99;99021.25;10392314;28;97068;-80
2021/12/25 05:28:25;;;;;;;6.50;3.30;;;7.40;99.90;;;5.47;86.61;99031.31;10382960;28;100074;-80
2021/12/25 05:33:28;;;;;;;6.80;3.77;;;7.40;99.90;;;5.40;86.41;99040.81;10392228;28;97159;-80
2021/12/25 05:38:31;;;;;;;5.23;3.50;;;7.30;99.90;;;5.34;86.64;99040.53;10379700;27;96980;-80
2021/12/25 05:43:34;;;;;;;5.77;3.13;;;7.30;99.90;;;5.34;86.76;99042.34;10366825;28;97060;-80
2021/12/25 05:48:37;;;;;;;6.67;4.33;;;7.20;99.90;;;5.30;86.55;99033.09;10380982;28;98719;-80
2021/12/25 05:53:41;;;;;;;5.67;3.77;;;7.20;99.90;;;5.20;86.42;99035.88;10389192;28;97112;-80
2021/12/25 05:58:44;;;;;;;5.63;3.50;;;7.10;99.90;;;5.08;86.78;99040.59;10386286;28;97610;-80
2021/12/25 06:03:47;;;;;;;5.97;3.17;;;7.00;99.90;;;4.95;86.87;99035.00;10385639;28;97037;-80
2021/12/25 06:08:50;;;;;;;5.27;2.77;;;6.90;99.90;;;4.79;87.28;99043.66;10383309;27;98694;-79
2021/12/25 06:14:05;;;;;;;4.07;2.60;;;6.80;99.90;;;4.61;87.04;99056.06;10393857;28;96610;-82
2021/12/25 06:19:09;;;;;;;5.43;3.30;;;6.60;99.90;;;4.45;87.84;99053.38;10378716;27;97732;-84
2021/12/25 06:24:14;;;;;;;5.10;3.00;;;6.50;99.90;;;4.30;88.50;99053.94;10369391;28;97908;-80
2021/12/25 06:29:19;;;;;;;11.73;7.00;;;6.40;99.90;;;4.21;88.66;99061.97;10394459;28;96861;-80
2021/12/25 06:34:22;;;;;;;12.73;7.07;;;6.30;99.90;;;3.98;88.76;99061.63;10399095;28;96806;-80
2021/12/25 06:39:26;;;;;;;16.37;9.13;;;6.10;99.90;;;3.79;89.02;99064.44;10385311;28;97283;-80
2021/12/25 06:44:29;;;;;;;16.77;8.60;;;5.90;99.90;;;3.61;89.75;99072.34;10404912;28;98320;-80
2021/12/25 06:49:32;;;;;;;19.70;8.20;;;5.80;99.90;;;3.47;90.01;99082.38;10393149;28;97357;-81
2021/12/25 06:54:41;;;;;;;17.33;9.93;;;5.60;99.90;;;3.39;90.73;99095.44;10394969;28;96949;-80
2021/12/25 06:59:44;;;;;;;19.27;9.30;;;5.50;99.90;;;3.38;91.20;99088.53;10391861;28;96717;-81
2021/12/25 07:04:47;;;;;;;40.07;24.20;;;5.50;99.90;;;3.45;91.69;99094.84;10386006;28;97080;-80
2021/12/25 07:09:50;;;;;;;23.77;14.70;;;5.50;99.90;;;3.51;91.87;99101.31;10389152;28;97459;-80
2021/12/25 07:14:53;;;;;;;27.37;15.47;;;5.40;99.90;;;3.52;92.00;99110.00;10389873;27;97175;-81
2021/12/25 07:19:58;;;;;;;27.73;15.73;;;5.50;99.90;;;3.54;92.22;99121.19;10391004;28;96981;-80
2021/12/25 07:25:03;;;;;;;30.77;17.70;;;5.50;99.90;;;3.58;92.46;99126.00;10395915;28;96845;-80
2021/12/25 07:30:07;;;;;;;23.13;13.90;;;5.60;99.90;;;3.64;92.69;99124.56;10382165;28;97253;-80
2021/12/25 07:35:11;;;;;;;34.90;17.43;;;5.60;99.90;;;3.68;92.86;99118.06;10385413;28;97584;-81
2021/12/25 07:40:14;;;;;;;32.67;17.30;;;5.60;99.90;;;3.72;92.82;99114.16;10399198;28;97053;-81
2021/12/25 07:45:17;;;;;;;34.57;18.17;;;5.70;99.90;;;3.74;92.88;99126.16;10376029;28;97245;-79
2021/12/25 07:50:23;;;;;;;28.73;15.33;;;5.70;99.90;;;3.78;92.99;99142.47;10390539;28;96800;-79
2021/12/25 07:55:32;;;;;;;35.57;19.50;;;5.80;99.90;;;3.82;92.88;99154.31;10377202;28;97165;-79
2021/12/25 08:00:39;;;;;;;40.60;20.83;;;5.80;99.90;;;3.88;92.98;99143.19;10389310;28;97442;-77
2021/12/25 08:05:44;;;;;;;37.57;20.17;;;5.80;99.90;;;3.93;93.02;99154.09;10406110;28;96551;-79
2021/12/25 08:10:47;;;;;;;43.33;24.83;;;5.90;99.90;;;3.94;93.23;99147.84;10387050;28;96922;-79
2021/12/25 08:15:49;;;;;;;45.70;23.87;;;5.90;99.90;;;4.00;93.29;99143.78;10380916;28;96738;-79
2021/12/25 08:20:52;;;;;;;51.20;27.90;;;5.90;99.90;;;4.07;93.42;99149.25;10383767;28;98223;-79
2021/12/25 08:25:55;;;;;;;41.67;23.10;;;6.00;99.90;;;4.15;93.29;99163.31;10395574;28;97957;-79
2021/12/25 08:30:59;;;;;;;41.97;22.27;;;6.10;99.90;;;4.19;92.99;99158.56;10368023;28;97172;-78
2021/12/25 08:36:02;;;;;;;33.30;18.33;;;6.10;99.90;;;4.22;92.77;99161.72;10381711;28;98245;-77
2021/12/25 08:41:05;;;;;;;27.13;15.13;;;6.10;99.90;;;4.27;92.84;99158.63;10385582;28;97581;-77
2021/12/25 08:46:16;;;;;;;22.93;12.37;;;6.20;99.90;;;4.27;92.39;99143.69;10394328;28;98177;-77
2021/12/25 08:51:19;;;;;;;23.53;12.83;;;6.20;99.90;;;4.29;92.33;99146.16;10394535;28;98829;-77
2021/12/25 08:56:22;;;;;;;19.43;11.47;;;6.20;99.90;;;4.32;92.46;99134.50;10382099;28;96855;-77
2021/12/25 09:01:24;;;;;;;22.27;13.47;;;6.30;99.90;;;4.34;92.50;99124.66;10394406;28;97258;-77
2021/12/25 09:06:28;;;;;;;25.03;15.37;;;6.30;99.90;;;4.39;92.61;99130.28;10383383;28;98079;-79
2021/12/25 09:11:37;;;;;;;28.30;16.83;;;6.40;99.90;;;4.51;92.66;99116.72;10392635;28;96713;-78
2021/12/25 09:16:41;;;;;;;23.73;13.67;;;6.40;99.90;;;4.65;92.50;99120.56;10374394;28;98024;-77
2021/12/25 09:21:44;;;;;;;22.17;13.17;;;6.50;99.90;;;4.75;92.21;99116.03;10377137;28;98083;-78
2021/12/25 09:26:48;;;;;;;103.70;38.43;;;6.60;99.90;;;4.83;92.15;99109.97;10380608;27;98223;-77
2021/12/25 09:31:51;;;;;;;36.13;18.13;;;6.70;99.90;;;4.97;91.98;99117.25;10389180;28;96906;-77
2021/12/25 09:36:54;;;;;;;25.97;16.10;;;6.80;99.90;;;5.09;91.95;99102.81;10393125;28;98180;-77
2021/12/25 09:41:57;;;;;;;26.00;14.43;;;6.90;99.90;;;5.17;91.37;99101.22;10393103;28;98226;-78
2021/12/25 09:47:01;;;;;;;25.60;14.70;;;7.00;99.90;;;5.23;91.38;99098.78;10391698;28;96515;-77
2021/12/25 09:52:04;;;;;;;26.30;15.67;;;7.10;99.90;;;5.34;nan;99100.28;10371961;27;97894;-77
2021/12/25 09:57:08;;;;;;;40.23;23.50;;;7.10;99.90;;;5.47;91.05;99097.19;10379968;28;98349;-77
2021/12/25 10:02:16;;;;;;;37.87;22.37;;;7.30;99.90;;;5.72;91.28;99092.75;10373899;28;96937;-78
2021/12/25 10:07:28;;;;;;;33.43;22.23;;;7.50;99.90;;;6.10;90.92;99096.56;10385754;27;97899;-78
2021/12/25 10:12:40;;;;;;;35.47;21.77;;;7.80;99.90;;;6.45;89.59;99090.09;10386720;28;97970;-78
2021/12/25 10:17:44;;;;;;;;;;;8.10;99.90;;;6.67;87.96;99109.69;10385871;28;97042;-78
2021/12/25 10:23:00;;;;;;;29.03;18.20;;;8.30;99.90;;;6.82;87.05;99086.84;10398246;28;98427;-78
2021/12/25 10:28:07;;;;;;;32.20;19.27;;;8.50;99.90;;;6.93;85.65;99109.44;10374831;28;98423;-78
2021/12/25 10:33:28;;;;;;;26.60;17.03;;;8.60;99.90;;;7.12;85.71;99111.66;10384096;28;97914;-77
2021/12/25 10:38:32;;;;;;;28.83;18.20;;;8.80;99.90;;;7.29;84.66;99106.28;10381477;28;97752;-78
2021/12/25 10:43:40;;;;;;;27.37;16.27;;;9.00;99.90;;;7.41;84.21;99096.97;10381242;28;97778;-78
2021/12/25 10:48:45;;;;;;;28.10;16.63;;;9.10;99.90;;;7.42;83.30;99095.97;10374347;28;97793;-78
2021/12/25 10:53:52;;;;;;;29.03;18.00;;;9.10;99.90;;;7.40;83.33;99079.47;10363483;28;98478;-78
2021/12/25 10:59:09;;;;;;;20.70;13.43;;;9.10;99.90;;;7.58;83.44;99072.09;10387158;28;96982;-77
2021/12/25 11:04:36;;;;;;;21.77;14.10;;;9.30;99.90;;;7.95;83.53;99057.25;10374980;27;98804;-78
2021/12/25 11:09:39;;;;;;;18.77;12.43;;;9.50;99.90;;;8.30;83.01;99066.34;10381135;28;96792;-78
2021/12/25 11:14:44;;;;;;;18.43;12.40;;;9.90;99.90;;;8.48;81.78;99063.38;10378780;28;98389;-77
2021/12/25 11:19:58;;;;;;;16.67;11.43;;;10.10;99.90;;;8.67;81.91;99039.00;10403097;28;96781;-78
2021/12/25 11:25:00;;;;;;;23.50;13.37;;;10.30;99.90;;;8.82;80.56;99034.53;10395003;28;97118;-78
2021/12/25 11:30:05;;;;;;;19.37;12.93;;;10.50;99.90;;;8.92;79.54;99030.75;10395915;28;97351;-78
2021/12/25 11:35:10;;;;;;;16.67;11.40;;;10.60;99.90;;;8.99;79.03;99029.00;10382852;28;98252;-77
2021/12/25 11:40:16;;;;;;;16.13;10.90;;;10.80;99.90;;;9.10;79.24;99021.38;10401346;28;96562;-78
2021/12/25 11:45:33;;;;;;;15.97;10.20;;;10.80;99.90;;;9.16;78.85;98993.31;10399968;28;97019;-78
2021/12/25 11:50:42;;;;;;;27.50;12.43;;;11.00;99.90;;;9.08;77.56;98981.00;10392635;28;98114;-78
2021/12/25 11:56:04;;;;;;;16.43;11.30;;;10.90;99.90;;;9.01;77.87;98996.03;10382841;28;96571;-86
2021/12/25 12:01:18;;;;;;;16.77;11.60;;;10.90;99.90;;;9.03;78.41;98983.41;10380633;28;96863;-83
2021/12/25 12:06:47;;;;;;;15.57;10.23;;;10.90;99.90;;;9.04;78.57;98990.31;10392199;28;96998;-83
2021/12/25 12:12:22;;;;;;;13.77;9.90;;;10.90;99.90;;;9.07;78.17;98989.16;10385400;28;98041;-84
2021/12/25 12:17:30;;;;;;;12.23;8.10;;;10.90;99.90;;;9.07;77.70;98983.84;10383011;27;97153;-89
2021/12/25 12:27:58;;;;;;;;;;;11.00;99.90;;;9.07;76.52;98983.84;10392331;28;97329;-80
2021/12/25 12:33:14;;;;;;;12.30;8.27;;;10.90;99.90;;;9.01;76.54;98995.19;10379680;28;97208;-80
2021/12/25 12:38:43;;;;;;;10.70;7.10;;;10.90;99.90;;;9.01;76.95;98988.06;10389967;28;97227;-80
2021/12/25 12:44:13;;;;;;;11.23;7.30;;;10.90;99.90;;;9.08;77.49;98985.50;10387879;28;97126;-81
2021/12/25 12:49:44;;;;;;;12.97;8.13;;;10.90;99.90;;;9.10;77.63;98983.47;10379555;28;96681;-80
2021/12/25 12:55:10;;;;;;;19.37;10.57;;;11.00;99.90;;;9.06;77.61;98988.34;10369695;28;96980;-80
2021/12/25 13:00:27;;;;;;;11.47;8.17;;;11.00;99.90;;;9.02;77.86;98988.88;10377143;28;98302;-80
2021/12/25 13:05:39;;;;;;;14.20;9.07;;;10.90;99.90;;;9.00;77.95;98975.84;10378152;28;96971;-80
2021/12/25 13:10:51;;;;;;;13.90;8.83;;;10.90;99.90;;;9.00;78.25;98972.38;10391796;28;97061;-80
2021/12/25 13:16:09;;;;;;;14.57;9.73;;;10.90;99.90;;;8.97;78.86;98978.84;10388137;27;97128;-80
2021/12/25 13:21:33;;;;;;;13.63;9.97;;;10.90;99.90;;;8.87;78.61;98980.97;10378325;28;97663;-80
2021/12/25 13:26:42;;;;;;;13.63;10.07;;;10.80;99.90;;;8.70;78.77;98972.44;10376416;28;98349;-79
2021/12/25 13:31:46;;;;;;;18.50;11.07;;;10.70;99.90;;;8.59;79.18;98970.25;10374943;28;96925;-80
2021/12/25 13:36:56;;;;;;;12.93;9.07;;;10.60;99.90;;;8.50;80.07;98955.47;10392517;28;97343;-80
2021/12/25 13:42:13;;;;;;;17.50;11.30;;;10.50;99.90;;;8.38;79.98;98962.25;10399432;28;96569;-80
2021/12/25 13:47:26;;;;;;;18.57;11.10;;;10.40;99.90;;;8.24;80.49;98980.56;10386958;28;97914;-81
2021/12/25 13:52:40;;;;;;;21.70;12.60;;;10.30;99.90;;;8.12;80.66;98982.00;10389937;28;96860;-81
2021/12/25 13:57:48;;;;;;;32.57;17.40;;;10.10;99.90;;;7.99;81.27;98963.31;10381539;28;98450;-81
2021/12/25 14:02:56;;;;;;;21.40;12.90;;;10.00;99.90;;;7.85;81.27;98985.25;10384582;28;98715;-80
2021/12/25 14:07:59;;;;;;;23.90;13.87;;;9.90;99.90;;;7.73;81.90;98992.78;10393584;28;96653;-81
2021/12/25 14:13:15;;;;;;;21.80;13.10;;;9.70;99.90;;;7.54;82.16;99004.69;10362034;28;99124;-80
2021/12/25 14:18:21;;;;;;;20.77;12.57;;;9.60;99.90;;;7.39;82.70;99001.19;10373233;28;97059;-81
2021/12/25 14:23:24;;;;;;;21.90;13.73;;;9.40;99.90;;;7.24;83.27;99006.41;10390538;28;98201;-81
2021/12/25 14:28:35;;;;;;;23.00;14.73;;;9.30;99.90;;;7.07;83.63;99018.88;10384475;28;98452;-81
2021/12/25 14:33:54;;;;;;;21.67;12.87;;;9.20;99.90;;;6.93;84.11;99019.63;10393388;28;96712;-80
2021/12/25 14:38:57;;;;;;;26.80;15.63;;;9.00;99.90;;;6.76;83.78;99023.34;10391632;27;97025;-81
2021/12/25 14:44:27;;;;;;;35.40;19.63;;;8.80;99.90;;;6.41;83.45;99030.72;10379223;28;99127;-81
2021/12/25 14:49:59;;;;;;;38.97;21.60;;;8.50;99.90;;;6.05;84.09;99040.84;10390654;28;97797;-81
2021/12/25 14:55:13;;;;;;;;;;;8.20;99.90;;;5.75;84.60;99050.25;10373367;28;96838;-81
2021/12/25 15:00:25;;;;;;;40.67;21.53;;;7.90;99.90;;;5.48;84.94;99044.31;10383304;28;97061;-80
2021/12/25 15:05:42;;;;;;;;;;;7.60;99.90;;;5.23;85.63;99058.44;10389859;28;96920;-80
2021/12/25 15:10:46;;;;;;;43.23;23.03;;;7.30;99.90;;;4.98;86.02;99060.19;10381384;28;97088;-81
2021/12/25 15:15:53;;;;;;;43.17;23.13;;;7.10;99.90;;;4.73;86.44;99077.66;10379581;28;98303;-81
2021/12/25 15:21:11;;;;;;;44.67;23.27;;;6.80;99.90;;;4.54;87.14;99091.88;10392163;28;97167;-81
2021/12/25 15:26:19;;;;;;;44.53;22.20;;;6.50;99.90;;;4.37;87.28;99093.59;10397728;27;96890;-80
2021/12/25 15:31:26;;;;;;;43.53;21.20;;;6.40;99.90;;;4.22;87.74;99111.75;10367610;28;98340;-81
2021/12/25 15:36:32;;;;;;;38.13;20.57;;;6.20;99.90;;;4.11;87.80;99124.31;10389067;28;96624;-81
2021/12/25 15:41:35;;;;;;;41.27;19.97;;;6.10;99.90;;;3.99;87.68;99135.06;10382198;28;98916;-80
2021/12/25 15:46:38;;;;;;;35.53;18.43;;;6.00;99.90;;;3.86;87.83;99137.28;10395237;28;97218;-80
2021/12/25 15:51:52;;;;;;;35.37;17.27;;;5.90;99.90;;;3.72;87.86;99148.31;10388496;28;96732;-80
2021/12/25 15:56:58;;;;;;;31.80;17.53;;;5.70;99.90;;;3.59;88.10;99153.09;10391172;28;98326;-80
2021/12/25 16:02:12;;;;;;;29.27;16.03;;;5.60;99.90;;;3.47;88.04;99155.91;10387239;28;96756;-80
2021/12/25 16:07:15;;;;;;;29.07;15.80;;;5.50;99.90;;;3.39;88.53;99179.47;10391887;28;97459;-80
2021/12/25 16:12:19;;;;;;;35.80;18.40;;;5.40;99.90;;;3.32;88.28;99175.78;10407336;27;97057;-80
2021/12/25 16:17:22;;;;;;;38.60;18.93;;;5.30;99.90;;;3.26;88.63;99171.13;10386256;28;98744;-80
2021/12/25 16:22:25;;;;;;;35.97;19.50;;;5.30;99.90;;;3.21;88.50;99175.97;10388235;28;97577;-81
2021/12/25 16:27:28;;;;;;;33.93;17.80;;;5.20;99.90;;;3.12;88.25;99188.19;10383583;28;97062;-81
2021/12/25 16:32:31;;;;;;;31.90;16.47;;;5.20;99.90;;;3.08;88.73;99199.13;10389539;28;97068;-81
2021/12/25 16:37:34;;;;;;;30.47;15.00;;;5.10;99.90;;;2.98;88.47;99187.81;10383231;28;98647;-80
2021/12/25 16:42:38;;;;;;;31.93;16.53;;;5.00;99.90;;;2.90;88.53;99178.88;10371207;28;96718;-81
2021/12/25 16:47:42;;;;;;;28.17;15.97;;;5.00;99.90;;;2.84;88.58;99184.69;10381997;28;98093;-81
2021/12/25 16:52:45;;;;;;;30.20;14.47;;;4.90;99.90;;;2.76;88.53;99189.00;10385661;28;98282;-81
2021/12/25 16:57:49;;;;;;;28.30;14.40;;;4.80;99.90;;;2.69;88.71;99189.56;10388533;28;97002;-81
2021/12/25 17:02:55;;;;;;;28.27;14.63;;;4.70;99.90;;;2.67;88.85;99177.56;10376955;27;96755;-81
2021/12/25 17:07:58;;;;;;;32.93;15.00;;;4.70;99.90;;;2.66;89.15;99196.91;10382364;28;96627;-81
2021/12/25 17:13:02;;;;;;;25.80;14.87;;;4.70;99.90;;;2.63;89.28;99205.03;10380180;28;97267;-81
2021/12/25 17:18:06;;;;;;;26.70;13.13;;;4.60;99.90;;;2.61;89.10;99215.69;10389947;28;96909;-81
2021/12/25 17:23:09;;;;;;;22.17;12.80;;;4.70;99.90;;;2.60;89.35;99226.31;10368203;28;96910;-81
2021/12/25 17:28:13;;;;;;;23.67;13.10;;;4.70;99.90;;;2.59;89.18;99237.78;10384638;28;97371;-81
2021/12/25 17:33:19;;;;;;;24.97;12.20;;;4.60;99.90;;;2.54;88.77;99246.06;10383741;28;96666;-81
2021/12/25 17:38:36;;;;;;;23.80;12.77;;;4.60;99.90;;;2.48;88.96;99266.78;10380251;28;96916;-81
2021/12/25 17:43:40;;;;;;;27.73;13.40;;;4.50;99.90;;;2.46;89.12;99290.53;10390726;28;97944;-81
2021/12/25 17:48:43;;;;;;;23.17;11.97;;;4.50;99.90;;;2.42;89.21;99297.84;10398368;28;96528;-81
2021/12/25 17:53:47;;;;;;;26.30;12.67;;;4.50;99.90;;;2.37;89.17;99302.66;10388817;28;98705;-81
2021/12/25 17:58:50;;;;;;;30.37;13.73;;;4.40;99.90;;;2.32;89.38;99317.13;10381040;28;97786;-81
2021/12/25 18:03:53;;;;;;;31.40;15.67;;;4.40;99.90;;;2.25;89.58;99319.47;10401858;28;96860;-81
2021/12/25 18:08:56;;;;;;;33.50;16.80;;;4.30;99.90;;;2.13;89.88;99324.03;10391361;28;98357;-81
2021/12/25 18:13:59;;;;;;;27.43;13.60;;;4.20;99.90;;;2.02;90.34;99339.84;10391657;28;98259;-80
2021/12/25 18:19:02;;;;;;;29.47;15.53;;;4.10;99.90;;;1.92;90.67;99359.97;10394711;28;96653;-81
2021/12/25 18:24:06;;;;;;;26.13;12.73;;;4.00;99.90;;;1.81;90.97;99374.00;10386034;28;97767;-81
2021/12/25 18:29:09;;;;;;;25.37;11.90;;;3.90;99.90;;;1.69;91.21;99369.81;10391532;28;97138;-80
2021/12/25 18:34:12;;;;;;;22.37;12.53;;;3.80;99.90;;;1.57;91.66;99374.31;10396454;28;97159;-80
2021/12/25 18:39:17;;;;;;;18.03;10.20;;;3.60;99.90;;;1.48;91.91;99389.97;10387104;28;98781;-83
2021/12/25 18:44:21;;;;;;;21.37;9.90;;;3.50;99.90;;;1.40;92.04;99395.84;10396397;27;98471;-81
2021/12/25 18:49:25;;;;;;;19.33;9.07;;;3.50;99.90;;;1.31;92.30;99392.19;10397198;28;98235;-80
2021/12/25 18:54:30;;;;;;;17.53;9.50;;;3.40;99.90;;;1.22;92.83;99413.09;10394750;28;97181;-80
2021/12/25 18:59:34;;;;;;;16.20;8.70;;;3.30;99.90;;;1.13;92.70;99419.91;10399774;28;98302;-81
2021/12/25 19:04:39;;;;;;;17.23;8.70;;;3.20;99.90;;;1.06;93.00;99421.38;10381899;28;98727;-81
2021/12/25 19:09:42;;;;;;;13.77;7.60;;;3.10;99.90;;;0.90;92.34;99408.75;10386988;28;96645;-81
2021/12/25 19:14:46;;;;;;;13.47;7.67;;;3.00;99.90;;;0.80;92.58;99423.50;10386996;28;96957;-81
2021/12/25 19:19:49;;;;;;;11.40;6.60;;;2.90;99.90;;;0.70;92.79;99433.06;10389574;28;97376;-80
2021/12/25 19:24:53;;;;;;;10.93;5.83;;;2.80;99.90;;;0.59;92.92;99430.47;10395169;27;96583;-79
2021/12/25 19:29:55;;;;;;;12.60;6.80;;;2.70;99.90;;;0.47;93.05;99427.03;10379283;28;96913;-78
2021/12/25 19:34:59;;;;;;;15.20;6.70;;;2.60;99.90;;;0.34;93.11;99431.59;10394064;28;97134;-79
2021/12/25 19:40:05;;;;;;;15.07;5.43;;;2.50;99.90;;;0.19;93.35;99424.03;10386680;28;98351;-78
2021/12/25 19:45:10;;;;;;;7.97;4.57;;;2.40;99.90;;;0.09;93.48;99433.53;10368930;28;96788;-78
2021/12/25 19:50:29;;;;;;;7.27;3.87;;;2.30;99.90;;;0.01;93.73;99440.31;10383647;28;96600;-79
2021/12/25 19:55:36;;;;;;;6.73;3.80;;;2.20;99.90;;;-0.04;93.77;99444.09;10384581;28;97040;-79
2021/12/25 20:00:46;;;;;;;14.40;6.03;;;2.10;99.90;;;-0.12;94.11;99445.63;10383405;28;96893;-80
2021/12/25 20:05:52;;;;;;;10.20;5.10;;;2.00;99.90;;;-0.16;93.78;99454.66;10376255;28;96959;-79
2021/12/25 20:10:55;;;;;;;11.03;5.90;;;2.00;99.90;;;-0.22;93.85;99470.81;10397062;28;97032;-79
2021/12/25 20:16:02;;;;;;;9.23;5.23;;;1.90;99.90;;;-0.27;94.29;99479.81;10385294;28;96692;-79
2021/12/25 20:21:05;;;;;;;8.73;4.93;;;1.90;99.90;;;-0.28;94.65;99472.09;10384916;28;97936;-80
2021/12/25 20:26:09;;;;;;;10.30;5.30;;;1.90;99.90;;;-0.30;94.54;99467.00;10378671;28;96676;-80
2021/12/25 20:31:14;;;;;;;13.73;5.50;;;1.80;99.90;;;-0.30;95.14;99458.31;10384469;28;100513;-80
2021/12/25 20:36:18;;;;;;;11.33;5.47;;;1.80;99.90;;;-0.32;95.06;99466.28;10381359;27;98043;-79
2021/12/25 20:41:21;;;;;;;9.23;5.03;;;1.80;99.90;;;-0.32;95.27;99473.28;10381445;28;96694;-79
2021/12/25 20:46:25;;;;;;;9.60;5.60;;;1.80;99.90;;;-0.35;95.14;99476.13;10383508;28;98268;-85
2021/12/25 20:51:29;;;;;;;14.43;7.50;;;1.80;99.90;;;-0.34;95.76;99470.78;10378900;28;96619;-82
2021/12/25 20:56:32;;;;;;;12.27;5.57;;;1.80;99.90;;;-0.33;95.27;99472.44;10375263;28;97455;-81
2021/12/25 21:01:37;;;;;;;10.43;5.37;;;1.80;99.90;;;-0.35;95.50;99482.19;10382909;28;97681;-80
2021/12/25 21:06:40;;;;;;;9.97;5.23;;;1.80;99.90;;;-0.35;95.55;99484.78;10383903;28;96810;-80
2021/12/25 21:11:44;;;;;;;10.57;5.43;;;1.80;99.90;;;-0.35;95.67;99492.63;10378264;28;97083;-80
2021/12/25 21:16:47;;;;;;;10.80;4.97;;;1.80;99.90;;;-0.36;95.71;99496.19;10390285;28;96662;-80
2021/12/25 21:21:51;;;;;;;9.17;4.80;;;1.80;99.90;;;-0.36;96.33;99498.81;10375413;28;98144;-80
2021/12/25 21:26:54;;;;;;;10.53;5.87;;;1.80;99.90;;;-0.34;96.03;99503.91;10391608;28;97061;-80
2021/12/25 21:32:02;;;;;;;9.13;5.00;;;1.80;99.90;;;-0.36;96.40;99524.91;10385845;28;98262;-80
2021/12/25 21:37:06;;;;;;;10.43;6.10;;;1.80;99.90;;;-0.38;96.56;99520.72;10384231;28;97791;-80
2021/12/25 21:42:09;;;;;;;14.87;8.27;;;1.80;99.90;;;-0.41;96.22;99521.81;10377446;28;97097;-80
2021/12/25 21:47:12;;;;;;;9.40;4.80;;;1.70;99.90;;;-0.47;96.37;99535.31;10376855;27;99546;-80
2021/12/25 21:52:15;;;;;;;9.63;5.23;;;1.70;99.90;;;-0.50;96.86;99535.53;10394667;28;96846;-80
2021/12/25 21:57:19;;;;;;;8.63;5.07;;;1.60;99.90;;;-0.55;96.61;99548.06;10381665;28;97250;-80
2021/12/25 22:02:21;;;;;;;8.33;4.23;;;1.60;99.90;;;-0.57;96.41;99558.63;10388851;28;97669;-79
2021/12/25 22:07:29;;;;;;;10.07;6.17;;;1.60;99.90;;;-0.61;96.88;99566.78;10383974;28;97098;-79
2021/12/25 22:12:32;;;;;;;8.77;4.83;;;1.60;99.90;;;-0.64;96.89;99554.00;10385756;28;96919;-79
2021/12/25 22:17:36;;;;;;;7.87;4.80;;;1.50;99.90;;;-0.66;97.03;99561.06;10377691;28;97951;-79
2021/12/25 22:22:41;;;;;;;9.83;4.97;;;1.50;99.90;;;-0.68;97.01;99562.97;10381480;28;96655;-80
2021/12/25 22:27:46;;;;;;;8.77;5.23;;;1.40;99.90;;;-0.72;97.10;99571.97;10375577;28;98931;-80
2021/12/25 22:32:49;;;;;;;8.60;4.93;;;1.40;99.90;;;-0.77;97.31;99568.88;10381527;28;97051;-80
2021/12/25 22:37:56;;;;;;;10.67;5.17;;;1.40;99.90;;;-0.82;97.53;99567.44;10381363;28;98860;-80